createdAt,value
2017-10-16T00:00:05.637Z,17.11
2017-10-16T00:01:14.808Z,17.08
2017-10-16T00:02:23.643Z,17.15
2017-10-16T00:03:32.480Z,17.11
2017-10-16T00:04:41.317Z,16.98
2017-10-16T00:05:50.156Z,17.11
2017-10-16T00:06:58.995Z,17
2017-10-16T00:08:07.834Z,17.06
2017-10-16T00:09:16.671Z,16.98
2017-10-16T00:10:25.507Z,17.04
2017-10-16T00:11:34.342Z,16.93
2017-10-16T00:12:43.175Z,17.06
2017-10-16T00:13:52.015Z,16.97
2017-10-16T00:15:00.857Z,17.04
2017-10-16T00:16:10.035Z,16.94
2017-10-16T00:17:18.872Z,17
2017-10-16T00:18:27.709Z,16.91
2017-10-16T00:19:36.549Z,16.96
2017-10-16T00:20:45.390Z,16.97
2017-10-16T00:21:54.232Z,16.91
2017-10-16T00:23:03.063Z,16.96
2017-10-16T00:24:11.895Z,16.98
2017-10-16T00:25:20.738Z,16.97
2017-10-16T00:26:29.571Z,16.98
2017-10-16T00:27:38.416Z,17.01
2017-10-16T00:28:47.251Z,16.98
2017-10-16T00:29:56.089Z,16.96
2017-10-16T00:31:04.921Z,16.98
2017-10-16T00:32:13.757Z,16.98
2017-10-16T00:33:22.595Z,17.01
2017-10-16T00:34:31.432Z,16.96
2017-10-16T00:35:40.270Z,16.93
2017-10-16T00:36:49.106Z,16.96
2017-10-16T00:37:57.942Z,16.93
2017-10-16T00:39:06.785Z,16.96
2017-10-16T00:40:15.615Z,16.93
2017-10-16T00:41:24.453Z,16.93
2017-10-16T00:42:33.291Z,16.91
2017-10-16T00:43:42.131Z,16.91
2017-10-16T00:44:50.967Z,16.89
2017-10-16T00:45:59.804Z,16.89
2017-10-16T00:47:08.644Z,16.88
2017-10-16T00:48:17.481Z,16.89
2017-10-16T00:49:26.321Z,16.85
2017-10-16T00:50:35.157Z,16.82
2017-10-16T00:51:43.996Z,16.86
2017-10-16T00:52:52.828Z,16.86
2017-10-16T00:54:01.668Z,16.85
2017-10-16T00:55:10.505Z,16.81
2017-10-16T00:56:19.341Z,16.76
2017-10-16T00:57:28.175Z,16.81
2017-10-16T00:58:37.350Z,16.75
2017-10-16T00:59:46.200Z,16.75
2017-10-16T01:00:55.034Z,16.81
2017-10-16T01:02:03.870Z,16.79
2017-10-16T01:03:12.708Z,16.73
2017-10-16T01:04:21.542Z,16.78
2017-10-16T01:05:30.379Z,16.76
2017-10-16T01:06:39.219Z,16.71
2017-10-16T01:07:48.060Z,16.75
2017-10-16T01:08:56.898Z,16.75
2017-10-16T01:10:05.732Z,16.7
2017-10-16T01:11:14.575Z,16.76
2017-10-16T01:12:23.412Z,16.68
2017-10-16T01:13:32.254Z,16.68
2017-10-16T01:14:41.122Z,16.78
2017-10-16T01:15:49.935Z,16.7
2017-10-16T01:16:58.777Z,16.67
2017-10-16T01:18:07.612Z,16.71
2017-10-16T01:19:16.799Z,16.63
2017-10-16T01:20:25.632Z,16.58
2017-10-16T01:21:34.475Z,16.66
2017-10-16T01:22:43.303Z,16.63
2017-10-16T01:23:52.145Z,16.6
2017-10-16T01:25:00.982Z,16.6
2017-10-16T01:26:09.815Z,16.6
2017-10-16T01:27:18.650Z,16.57
2017-10-16T01:28:27.490Z,16.58
2017-10-16T01:29:36.333Z,16.57
2017-10-16T01:30:45.164Z,16.6
2017-10-16T01:31:54.000Z,16.52
2017-10-16T01:33:02.833Z,16.56
2017-10-16T01:34:11.671Z,16.52
2017-10-16T01:35:20.511Z,16.52
2017-10-16T01:36:29.347Z,16.57
2017-10-16T01:37:38.181Z,16.57
2017-10-16T01:38:47.023Z,16.52
2017-10-16T01:39:55.860Z,16.52
2017-10-16T01:41:04.693Z,16.5
2017-10-16T01:42:13.531Z,16.53
2017-10-16T01:43:22.365Z,16.48
2017-10-16T01:44:31.205Z,16.5
2017-10-16T01:45:40.046Z,16.45
2017-10-16T01:46:48.885Z,16.46
2017-10-16T01:47:57.721Z,16.46
2017-10-16T01:49:06.563Z,16.42
2017-10-16T01:50:15.401Z,16.5
2017-10-16T01:51:24.236Z,16.46
2017-10-16T01:52:33.077Z,16.45
2017-10-16T01:53:41.915Z,16.43
2017-10-16T01:54:50.753Z,16.39
2017-10-16T01:55:59.591Z,16.35
2017-10-16T01:57:08.429Z,16.39
2017-10-16T01:58:17.263Z,16.38
2017-10-16T01:59:26.100Z,16.35
2017-10-16T02:00:34.940Z,16.41
2017-10-16T02:01:43.779Z,16.31
2017-10-16T02:02:52.625Z,16.34
2017-10-16T02:04:01.456Z,16.33
2017-10-16T02:05:10.286Z,16.34
2017-10-16T02:06:19.463Z,16.33
2017-10-16T02:07:28.300Z,16.3
2017-10-16T02:08:37.133Z,16.35
2017-10-16T02:09:45.973Z,16.3
2017-10-16T02:10:54.807Z,16.3
2017-10-16T02:12:03.640Z,16.23
2017-10-16T02:13:12.482Z,16.27
2017-10-16T02:14:21.325Z,16.24
2017-10-16T02:15:30.156Z,16.2
2017-10-16T02:16:38.995Z,16.17
2017-10-16T02:17:47.824Z,16.17
2017-10-16T02:18:56.664Z,16.11
2017-10-16T02:20:05.502Z,16.15
2017-10-16T02:21:14.344Z,16.14
2017-10-16T02:22:23.173Z,16.14
2017-10-16T02:23:32.014Z,16.17
2017-10-16T02:24:40.847Z,16.2
2017-10-16T02:25:49.683Z,16.11
2017-10-16T02:26:58.863Z,16.17
2017-10-16T02:28:07.697Z,16.11
2017-10-16T02:29:16.530Z,16.05
2017-10-16T02:30:25.370Z,16.15
2017-10-16T02:31:34.207Z,16.21
2017-10-16T02:32:43.045Z,16.11
2017-10-16T02:33:51.886Z,16.14
2017-10-16T02:35:00.718Z,16.21
2017-10-16T02:36:09.551Z,16.04
2017-10-16T02:37:18.386Z,16.02
2017-10-16T02:38:27.224Z,16.12
2017-10-16T02:39:36.065Z,16.15
2017-10-16T02:40:44.903Z,16.17
2017-10-16T02:41:54.071Z,16.17
2017-10-16T02:43:02.933Z,16.2
2017-10-16T02:44:11.773Z,16.21
2017-10-16T02:45:20.957Z,16.17
2017-10-16T02:46:29.797Z,16.08
2017-10-16T02:47:38.634Z,16.01
2017-10-16T02:48:47.464Z,16.08
2017-10-16T02:49:56.303Z,16.02
2017-10-16T02:51:05.142Z,15.97
2017-10-16T02:52:13.978Z,15.97
2017-10-16T02:53:22.817Z,15.96
2017-10-16T02:54:31.646Z,16.08
2017-10-16T02:55:40.489Z,16.08
2017-10-16T02:56:49.660Z,16.02
2017-10-16T02:57:58.501Z,16.05
2017-10-16T02:59:07.334Z,16
2017-10-16T03:00:16.173Z,16
2017-10-16T03:01:25.003Z,15.94
2017-10-16T03:02:33.839Z,15.97
2017-10-16T03:03:42.676Z,16.04
2017-10-16T03:04:51.512Z,15.94
2017-10-16T03:06:00.343Z,15.97
2017-10-16T03:07:09.524Z,15.97
2017-10-16T03:08:18.360Z,15.86
2017-10-16T03:09:27.195Z,15.94
2017-10-16T03:10:36.032Z,15.86
2017-10-16T03:11:44.867Z,15.86
2017-10-16T03:12:53.702Z,15.86
2017-10-16T03:14:02.541Z,15.92
2017-10-16T03:15:11.376Z,15.9
2017-10-16T03:16:20.217Z,15.96
2017-10-16T03:17:29.056Z,15.86
2017-10-16T03:18:37.892Z,15.89
2017-10-16T03:19:46.727Z,15.86
2017-10-16T03:20:55.563Z,15.84
2017-10-16T03:22:04.399Z,15.84
2017-10-16T03:23:13.232Z,15.89
2017-10-16T03:24:22.064Z,15.84
2017-10-16T03:25:30.908Z,15.86
2017-10-16T03:26:40.082Z,15.8
2017-10-16T03:27:48.916Z,15.86
2017-10-16T03:28:57.757Z,15.8
2017-10-16T03:30:06.590Z,15.83
2017-10-16T03:31:15.428Z,15.84
2017-10-16T03:32:24.264Z,15.83
2017-10-16T03:33:33.100Z,15.9
2017-10-16T03:34:41.937Z,15.78
2017-10-16T03:35:50.775Z,15.84
2017-10-16T03:36:59.610Z,15.8
2017-10-16T03:38:08.443Z,15.82
2017-10-16T03:39:17.279Z,15.82
2017-10-16T03:40:26.113Z,15.86
2017-10-16T03:41:34.996Z,15.78
2017-10-16T03:42:43.830Z,15.87
2017-10-16T03:43:52.664Z,15.75
2017-10-16T03:45:01.498Z,15.78
2017-10-16T03:46:10.333Z,15.75
2017-10-16T03:47:19.164Z,15.72
2017-10-16T03:48:27.998Z,15.69
2017-10-16T03:49:36.840Z,15.68
2017-10-16T03:50:45.672Z,15.72
2017-10-16T03:51:54.514Z,15.67
2017-10-16T03:53:03.347Z,15.68
2017-10-16T03:54:12.542Z,15.64
2017-10-16T03:55:21.385Z,15.68
2017-10-16T03:56:30.558Z,15.59
2017-10-16T03:57:39.392Z,15.59
2017-10-16T03:58:48.226Z,15.68
2017-10-16T03:59:57.067Z,15.68
2017-10-16T04:01:05.899Z,15.59
2017-10-16T04:02:14.740Z,15.6
2017-10-16T04:03:23.577Z,15.64
2017-10-16T04:04:32.413Z,15.6
2017-10-16T04:05:41.247Z,15.51
2017-10-16T04:06:50.086Z,15.59
2017-10-16T04:07:58.922Z,15.59
2017-10-16T04:09:07.755Z,15.53
2017-10-16T04:10:16.591Z,15.56
2017-10-16T04:11:25.427Z,15.57
2017-10-16T04:12:34.597Z,15.46
2017-10-16T04:13:43.430Z,15.54
2017-10-16T04:14:52.265Z,15.59
2017-10-16T04:16:01.099Z,15.56
2017-10-16T04:17:09.932Z,15.44
2017-10-16T04:18:18.779Z,15.47
2017-10-16T04:19:27.609Z,15.44
2017-10-16T04:20:36.451Z,15.49
2017-10-16T04:21:45.281Z,15.44
2017-10-16T04:22:54.113Z,15.47
2017-10-16T04:24:02.952Z,15.41
2017-10-16T04:25:11.793Z,15.49
2017-10-16T04:26:20.631Z,15.43
2017-10-16T04:27:29.466Z,15.43
2017-10-16T04:28:38.305Z,15.49
2017-10-16T04:29:47.135Z,15.49
2017-10-16T04:30:55.976Z,15.47
2017-10-16T04:32:04.809Z,15.39
2017-10-16T04:33:13.649Z,15.47
2017-10-16T04:34:22.819Z,15.47
2017-10-16T04:35:31.653Z,15.35
2017-10-16T04:36:40.488Z,15.39
2017-10-16T04:37:49.323Z,15.44
2017-10-16T04:38:58.496Z,15.44
2017-10-16T04:40:07.331Z,15.34
2017-10-16T04:41:16.513Z,15.41
2017-10-16T04:42:25.349Z,15.44
2017-10-16T04:43:34.183Z,15.32
2017-10-16T04:44:43.021Z,15.35
2017-10-16T04:45:51.855Z,15.39
2017-10-16T04:47:00.692Z,15.36
2017-10-16T04:48:09.528Z,15.35
2017-10-16T04:49:18.361Z,15.32
2017-10-16T04:50:27.202Z,15.32
2017-10-16T04:51:36.037Z,15.34
2017-10-16T04:52:44.867Z,15.39
2017-10-16T04:53:53.703Z,15.32
2017-10-16T04:55:02.541Z,15.38
2017-10-16T04:56:11.714Z,15.35
2017-10-16T04:57:20.545Z,15.38
2017-10-16T04:58:29.380Z,15.34
2017-10-16T04:59:38.552Z,15.34
2017-10-16T05:00:47.391Z,15.29
2017-10-16T05:01:56.229Z,15.29
2017-10-16T05:03:05.066Z,15.29
2017-10-16T05:04:13.905Z,15.31
2017-10-16T05:05:23.074Z,15.27
2017-10-16T05:06:31.915Z,15.32
2017-10-16T05:07:40.749Z,15.29
2017-10-16T05:08:49.591Z,15.23
2017-10-16T05:09:58.419Z,15.28
2017-10-16T05:11:07.260Z,15.23
2017-10-16T05:12:16.093Z,15.19
2017-10-16T05:13:24.932Z,15.34
2017-10-16T05:14:33.770Z,15.2
2017-10-16T05:15:42.608Z,15.27
2017-10-16T05:16:51.435Z,15.27
2017-10-16T05:18:00.271Z,15.2
2017-10-16T05:19:09.110Z,15.2
2017-10-16T05:20:17.948Z,15.21
2017-10-16T05:21:26.781Z,15.23
2017-10-16T05:22:35.621Z,15.23
2017-10-16T05:23:44.455Z,15.17
2017-10-16T05:24:53.294Z,15.23
2017-10-16T05:26:02.133Z,15.2
2017-10-16T05:27:10.972Z,15.21
2017-10-16T05:28:19.804Z,15.2
2017-10-16T05:29:28.640Z,15.17
2017-10-16T05:30:37.476Z,15.21
2017-10-16T05:31:46.315Z,15.28
2017-10-16T05:32:55.152Z,15.19
2017-10-16T05:34:03.982Z,15.2
2017-10-16T05:35:12.824Z,15.16
2017-10-16T05:36:21.660Z,15.27
2017-10-16T05:37:30.493Z,15.23
2017-10-16T05:38:39.326Z,15.2
2017-10-16T05:39:48.171Z,15.2
2017-10-16T05:40:57.002Z,15.27
2017-10-16T05:42:05.840Z,15.19
2017-10-16T05:43:14.676Z,15.19
2017-10-16T05:44:23.506Z,15.23
2017-10-16T05:45:32.341Z,15.21
2017-10-16T05:46:41.174Z,15.2
2017-10-16T05:47:50.008Z,15.23
2017-10-16T05:48:58.845Z,15.17
2017-10-16T05:50:07.684Z,15.19
2017-10-16T05:51:16.520Z,15.16
2017-10-16T05:52:25.354Z,15.19
2017-10-16T05:53:34.190Z,15.19
2017-10-16T05:54:43.029Z,15.19
2017-10-16T05:55:51.860Z,15.25
2017-10-16T05:57:00.694Z,15.25
2017-10-16T05:58:09.535Z,15.19
2017-10-16T05:59:18.367Z,15.23
2017-10-16T06:00:27.206Z,15.19
2017-10-16T06:01:36.381Z,15.21
2017-10-16T06:02:45.210Z,15.25
2017-10-16T06:03:54.048Z,15.19
2017-10-16T06:05:02.883Z,15.2
2017-10-16T06:06:11.714Z,15.16
2017-10-16T06:07:20.547Z,15.17
2017-10-16T06:08:29.386Z,15.19
2017-10-16T06:09:38.230Z,15.2
2017-10-16T06:10:47.393Z,15.19
2017-10-16T06:11:56.223Z,15.19
2017-10-16T06:13:05.056Z,15.19
2017-10-16T06:14:13.897Z,15.27
2017-10-16T06:15:22.731Z,15.23
2017-10-16T06:16:31.565Z,15.21
2017-10-16T06:17:40.401Z,15.2
2017-10-16T06:18:49.233Z,15.23
2017-10-16T06:19:58.401Z,15.23
2017-10-16T06:21:07.245Z,15.25
2017-10-16T06:22:16.075Z,15.23
2017-10-16T06:23:24.909Z,15.2
2017-10-16T06:24:33.740Z,15.28
2017-10-16T06:25:42.576Z,15.23
2017-10-16T06:26:51.411Z,15.21
2017-10-16T06:28:00.248Z,15.17
2017-10-16T06:29:09.083Z,15.21
2017-10-16T06:30:17.922Z,15.19
2017-10-16T06:31:26.756Z,15.35
2017-10-16T06:32:35.593Z,15.25
2017-10-16T06:33:44.436Z,15.2
2017-10-16T06:34:53.612Z,15.29
2017-10-16T06:36:02.441Z,15.35
2017-10-16T06:37:11.277Z,15.36
2017-10-16T06:38:20.119Z,15.39
2017-10-16T06:39:28.951Z,15.36
2017-10-16T06:40:37.786Z,15.38
2017-10-16T06:41:46.630Z,15.38
2017-10-16T06:42:55.464Z,15.34
2017-10-16T06:44:04.299Z,15.36
2017-10-16T06:45:13.145Z,15.38
2017-10-16T06:46:22.324Z,15.46
2017-10-16T06:47:31.491Z,15.46
2017-10-16T06:48:40.324Z,15.46
2017-10-16T06:49:49.153Z,15.35
2017-10-16T06:50:57.991Z,15.35
2017-10-16T06:52:06.831Z,15.39
2017-10-16T06:53:15.667Z,15.43
2017-10-16T06:54:24.840Z,15.5
2017-10-16T06:55:33.678Z,15.53
2017-10-16T06:56:42.511Z,15.46
2017-10-16T06:57:51.350Z,15.56
2017-10-16T06:59:00.191Z,15.54
2017-10-16T07:00:09.019Z,15.56
2017-10-16T07:01:17.854Z,15.54
2017-10-16T07:02:26.693Z,15.57
2017-10-16T07:03:35.532Z,15.59
2017-10-16T07:04:45.048Z,15.68
2017-10-16T07:05:53.886Z,15.68
2017-10-16T07:07:02.718Z,15.72
2017-10-16T07:08:11.554Z,15.74
2017-10-16T07:09:20.391Z,15.68
2017-10-16T07:10:29.228Z,15.68
2017-10-16T07:11:38.077Z,15.71
2017-10-16T07:12:46.907Z,15.75
2017-10-16T07:13:55.741Z,15.78
2017-10-16T07:15:04.581Z,15.84
2017-10-16T07:16:13.423Z,15.8
2017-10-16T07:17:22.250Z,15.83
2017-10-16T07:18:31.084Z,15.8
2017-10-16T07:19:39.924Z,15.9
2017-10-16T07:20:48.758Z,15.94
2017-10-16T07:21:57.592Z,15.89
2017-10-16T07:23:06.442Z,15.9
2017-10-16T07:24:15.960Z,15.87
2017-10-16T07:25:24.792Z,16.04
2017-10-16T07:26:33.640Z,16
2017-10-16T07:27:42.470Z,16
2017-10-16T07:28:51.638Z,16.08
2017-10-16T07:30:00.481Z,15.92
2017-10-16T07:31:09.316Z,16.01
2017-10-16T07:32:18.160Z,16.04
2017-10-16T07:33:26.991Z,16.14
2017-10-16T07:34:35.826Z,16.12
2017-10-16T07:35:44.659Z,16.2
2017-10-16T07:36:53.497Z,16.2
2017-10-16T07:38:02.337Z,16.21
2017-10-16T07:39:11.172Z,16.09
2017-10-16T07:40:20.010Z,16.11
2017-10-16T07:41:28.844Z,16.17
2017-10-16T07:42:37.677Z,16.17
2017-10-16T07:43:46.516Z,16.11
2017-10-16T07:44:55.350Z,16.23
2017-10-16T07:46:04.187Z,16.27
2017-10-16T07:47:13.022Z,16.33
2017-10-16T07:48:21.863Z,16.35
2017-10-16T07:49:30.694Z,16.35
2017-10-16T07:50:39.536Z,16.33
2017-10-16T07:51:48.371Z,16.38
2017-10-16T07:52:57.204Z,16.41
2017-10-16T07:54:06.039Z,16.49
2017-10-16T07:55:14.876Z,16.46
2017-10-16T07:56:23.712Z,16.48
2017-10-16T07:57:32.550Z,16.53
2017-10-16T07:58:41.392Z,16.45
2017-10-16T07:59:50.230Z,16.53
2017-10-16T08:00:59.070Z,16.58
2017-10-16T08:02:07.902Z,16.56
2017-10-16T08:03:16.737Z,16.6
2017-10-16T08:04:25.629Z,16.71
2017-10-16T08:05:34.473Z,16.76
2017-10-16T08:06:43.312Z,16.75
2017-10-16T08:07:52.178Z,16.71
2017-10-16T08:09:01.152Z,16.73
2017-10-16T08:10:09.984Z,16.73
2017-10-16T08:11:18.900Z,16.71
2017-10-16T08:12:27.840Z,16.7
2017-10-16T08:13:37.578Z,16.71
2017-10-16T08:14:46.413Z,16.79
2017-10-16T08:15:55.249Z,16.85
2017-10-16T08:17:04.090Z,16.85
2017-10-16T08:18:12.926Z,16.83
2017-10-16T08:19:21.811Z,16.85
2017-10-16T08:20:30.768Z,16.97
2017-10-16T08:21:39.936Z,16.88
2017-10-16T08:22:48.777Z,16.96
2017-10-16T08:23:57.611Z,16.98
2017-10-16T08:25:06.449Z,16.98
2017-10-16T08:26:15.287Z,17.04
2017-10-16T08:27:24.124Z,17.08
2017-10-16T08:28:32.955Z,17.08
2017-10-16T08:29:41.792Z,17.15
2017-10-16T08:30:50.626Z,17.16
2017-10-16T08:31:59.470Z,17.14
2017-10-16T08:33:08.312Z,17.18
2017-10-16T08:34:17.145Z,17.06
2017-10-16T08:35:25.992Z,17.22
2017-10-16T08:36:34.820Z,17.25
2017-10-16T08:37:43.655Z,17.3
2017-10-16T08:38:52.498Z,17.26
2017-10-16T08:40:01.338Z,17.3
2017-10-16T08:41:10.513Z,17.34
2017-10-16T08:42:19.353Z,17.36
2017-10-16T08:43:28.192Z,17.4
2017-10-16T08:44:37.024Z,17.4
2017-10-16T08:45:45.866Z,17.51
2017-10-16T08:46:54.700Z,17.49
2017-10-16T08:48:03.541Z,17.59
2017-10-16T08:49:12.379Z,17.63
2017-10-16T08:50:21.216Z,17.63
2017-10-16T08:51:30.054Z,17.7
2017-10-16T08:52:38.894Z,17.63
2017-10-16T08:53:47.731Z,17.68
2017-10-16T08:54:56.563Z,17.59
2017-10-16T08:56:05.400Z,17.75
2017-10-16T08:57:14.575Z,17.78
2017-10-16T08:58:23.408Z,17.77
2017-10-16T08:59:32.248Z,17.74
2017-10-16T09:00:41.084Z,17.84
2017-10-16T09:01:49.926Z,17.93
2017-10-16T09:02:58.758Z,17.81
2017-10-16T09:04:07.598Z,17.93
2017-10-16T09:05:16.434Z,17.97
2017-10-16T09:06:25.270Z,18.02
2017-10-16T09:07:34.442Z,18.02
2017-10-16T09:08:43.296Z,18.07
2017-10-16T09:09:52.136Z,18.03
2017-10-16T09:11:00.977Z,18.08
2017-10-16T09:12:10.488Z,18.11
2017-10-16T09:13:19.327Z,18.18
2017-10-16T09:14:28.163Z,18.26
2017-10-16T09:15:36.999Z,18.17
2017-10-16T09:16:45.834Z,18.29
2017-10-16T09:17:54.675Z,18.25
2017-10-16T09:19:03.514Z,18.29
2017-10-16T09:20:12.349Z,18.41
2017-10-16T09:21:21.190Z,18.35
2017-10-16T09:22:30.030Z,18.41
2017-10-16T09:23:38.866Z,18.44
2017-10-16T09:24:47.710Z,18.39
2017-10-16T09:25:56.549Z,18.39
2017-10-16T09:27:05.390Z,18.47
2017-10-16T09:28:14.225Z,18.48
2017-10-16T09:29:23.068Z,18.51
2017-10-16T09:30:31.911Z,18.55
2017-10-16T09:31:40.745Z,18.55
2017-10-16T09:32:49.581Z,18.58
2017-10-16T09:33:58.418Z,18.63
2017-10-16T09:35:07.255Z,18.6
2017-10-16T09:36:16.101Z,18.57
2017-10-16T09:37:24.929Z,18.57
2017-10-16T09:38:33.769Z,18.65
2017-10-16T09:39:42.617Z,18.69
2017-10-16T09:40:51.456Z,18.69
2017-10-16T09:42:00.286Z,18.73
2017-10-16T09:43:09.128Z,18.78
2017-10-16T09:44:17.961Z,18.82
2017-10-16T09:45:26.808Z,18.87
2017-10-16T09:46:35.648Z,18.85
2017-10-16T09:47:44.489Z,18.81
2017-10-16T09:48:53.324Z,18.81
2017-10-16T09:50:02.165Z,18.82
2017-10-16T09:51:11.002Z,18.88
2017-10-16T09:52:19.844Z,18.99
2017-10-16T09:53:29.018Z,18.99
2017-10-16T09:54:37.903Z,18.95
2017-10-16T09:55:46.737Z,19.04
2017-10-16T09:56:55.583Z,19.04
2017-10-16T09:58:04.788Z,19.04
2017-10-16T09:59:13.630Z,19.04
2017-10-16T10:00:22.467Z,19.02
2017-10-16T10:01:31.314Z,19.14
2017-10-16T10:02:40.148Z,19.14
2017-10-16T10:03:48.999Z,19.19
2017-10-16T10:04:57.834Z,19.16
2017-10-16T10:06:06.670Z,19.21
2017-10-16T10:07:15.512Z,19.18
2017-10-16T10:08:24.347Z,19.26
2017-10-16T10:09:33.186Z,19.28
2017-10-16T10:10:42.026Z,19.28
2017-10-16T10:11:50.866Z,19.29
2017-10-16T10:12:59.698Z,19.28
2017-10-16T10:14:08.539Z,19.39
2017-10-16T10:15:17.379Z,19.37
2017-10-16T10:16:26.216Z,19.43
2017-10-16T10:17:35.058Z,19.46
2017-10-16T10:18:44.268Z,19.54
2017-10-16T10:19:53.109Z,19.51
2017-10-16T10:21:01.950Z,19.5
2017-10-16T10:22:10.789Z,19.61
2017-10-16T10:23:19.623Z,19.56
2017-10-16T10:24:28.487Z,19.58
2017-10-16T10:25:37.368Z,19.61
2017-10-16T10:26:46.209Z,19.65
2017-10-16T10:27:55.045Z,19.59
2017-10-16T10:29:03.889Z,19.61
2017-10-16T10:30:12.732Z,19.62
2017-10-16T10:31:21.571Z,19.76
2017-10-16T10:32:30.475Z,19.73
2017-10-16T10:33:39.364Z,19.68
2017-10-16T10:34:48.215Z,19.74
2017-10-16T10:35:57.056Z,19.78
2017-10-16T10:37:05.948Z,19.76
2017-10-16T10:38:15.136Z,19.86
2017-10-16T10:39:24.001Z,19.86
2017-10-16T10:40:32.841Z,19.91
2017-10-16T10:41:42.053Z,19.86
2017-10-16T10:42:50.891Z,19.84
2017-10-16T10:43:59.728Z,19.91
2017-10-16T10:45:08.567Z,19.96
2017-10-16T10:46:17.403Z,19.99
2017-10-16T10:47:26.249Z,20.01
2017-10-16T10:48:35.093Z,20.03
2017-10-16T10:49:43.940Z,20.06
2017-10-16T10:50:53.111Z,20.1
2017-10-16T10:52:02.342Z,20.01
2017-10-16T10:53:11.183Z,20.06
2017-10-16T10:54:20.031Z,20.02
2017-10-16T10:55:28.882Z,20.16
2017-10-16T10:56:37.725Z,20.06
2017-10-16T10:57:46.563Z,20.13
2017-10-16T10:58:55.407Z,20.1
2017-10-16T11:00:04.259Z,20.17
2017-10-16T11:01:13.097Z,20.18
2017-10-16T11:02:21.939Z,20.17
2017-10-16T11:03:30.774Z,20.17
2017-10-16T11:04:39.617Z,20.18
2017-10-16T11:05:48.456Z,20.28
2017-10-16T11:06:57.296Z,20.2
2017-10-16T11:08:06.135Z,20.35
2017-10-16T11:09:15.320Z,20.35
2017-10-16T11:10:24.225Z,20.33
2017-10-16T11:11:33.404Z,20.29
2017-10-16T11:12:42.243Z,20.35
2017-10-16T11:13:51.141Z,20.39
2017-10-16T11:15:00.026Z,20.33
2017-10-16T11:16:09.009Z,20.32
2017-10-16T11:17:17.856Z,20.33
2017-10-16T11:18:26.865Z,20.38
2017-10-16T11:19:36.041Z,20.52
2017-10-16T11:20:44.877Z,20.5
2017-10-16T11:21:53.719Z,20.5
2017-10-16T11:23:02.562Z,20.5
2017-10-16T11:24:11.399Z,20.54
2017-10-16T11:25:20.241Z,20.43
2017-10-16T11:26:29.084Z,20.51
2017-10-16T11:27:37.927Z,20.59
2017-10-16T11:28:46.767Z,20.55
2017-10-16T11:29:55.608Z,20.59
2017-10-16T11:31:04.784Z,20.67
2017-10-16T11:32:13.673Z,20.66
2017-10-16T11:33:22.513Z,20.59
2017-10-16T11:34:31.357Z,20.58
2017-10-16T11:35:40.193Z,20.61
2017-10-16T11:36:49.040Z,20.61
2017-10-16T11:37:57.927Z,20.58
2017-10-16T11:39:07.145Z,20.66
2017-10-16T11:40:15.987Z,20.51
2017-10-16T11:41:24.829Z,20.62
2017-10-16T11:42:34.011Z,20.58
2017-10-16T11:43:42.861Z,20.58
2017-10-16T11:44:51.695Z,20.57
2017-10-16T11:46:00.536Z,20.67
2017-10-16T11:47:09.379Z,20.72
2017-10-16T11:48:18.225Z,20.69
2017-10-16T11:49:27.066Z,20.74
2017-10-16T11:50:35.915Z,20.77
2017-10-16T11:51:44.749Z,20.73
2017-10-16T11:52:53.601Z,20.79
2017-10-16T11:54:02.453Z,20.72
2017-10-16T11:55:11.299Z,20.74
2017-10-16T11:56:20.136Z,20.74
2017-10-16T11:57:29.003Z,20.77
2017-10-16T11:58:37.840Z,20.77
2017-10-16T11:59:47.028Z,20.8
2017-10-16T12:00:55.871Z,20.8
2017-10-16T12:02:04.721Z,20.85
2017-10-16T12:03:13.555Z,20.79
2017-10-16T12:04:22.405Z,20.85
2017-10-16T12:05:31.252Z,20.8
2017-10-16T12:06:40.104Z,20.84
2017-10-16T12:07:48.948Z,20.87
2017-10-16T12:08:57.794Z,20.85
2017-10-16T12:10:06.727Z,20.87
2017-10-16T12:11:15.567Z,20.87
2017-10-16T12:12:24.407Z,20.91
2017-10-16T12:13:33.245Z,20.94
2017-10-16T12:14:42.096Z,20.91
2017-10-16T12:15:50.936Z,20.92
2017-10-16T12:17:00.109Z,20.85
2017-10-16T12:18:08.960Z,20.88
2017-10-16T12:19:17.799Z,20.85
2017-10-16T12:20:26.641Z,20.91
2017-10-16T12:21:35.825Z,21.01
2017-10-16T12:22:44.674Z,20.97
2017-10-16T12:23:53.529Z,20.91
2017-10-16T12:25:02.707Z,20.89
2017-10-16T12:26:11.549Z,20.97
2017-10-16T12:27:20.391Z,20.95
2017-10-16T12:28:29.238Z,21.01
2017-10-16T12:29:38.077Z,20.95
2017-10-16T12:30:47.094Z,20.99
2017-10-16T12:31:55.934Z,21.01
2017-10-16T12:33:04.776Z,20.94
2017-10-16T12:34:13.618Z,20.95
2017-10-16T12:35:22.456Z,21.12
2017-10-16T12:36:31.421Z,21.04
2017-10-16T12:37:40.263Z,21.04
2017-10-16T12:38:49.102Z,20.99
2017-10-16T12:39:57.945Z,21.01
2017-10-16T12:41:07.061Z,21.04
2017-10-16T12:42:16.402Z,21.14
2017-10-16T12:43:25.244Z,21.06
2017-10-16T12:44:34.094Z,21.1
2017-10-16T12:45:42.926Z,21.04
2017-10-16T12:46:51.766Z,21.1
2017-10-16T12:48:00.610Z,21.13
2017-10-16T12:49:09.451Z,21.12
2017-10-16T12:50:18.292Z,21.19
2017-10-16T12:51:27.139Z,21.1
2017-10-16T12:52:36.021Z,21.12
2017-10-16T12:53:44.849Z,21.14
2017-10-16T12:54:53.701Z,21.17
2017-10-16T12:56:02.578Z,21.17
2017-10-16T12:57:11.432Z,21.19
2017-10-16T12:58:20.303Z,21.16
2017-10-16T12:59:29.179Z,21.17
2017-10-16T13:00:38.092Z,21.25
2017-10-16T13:01:46.978Z,21.14
2017-10-16T13:02:55.841Z,21.17
2017-10-16T13:04:04.706Z,21.22
2017-10-16T13:05:13.580Z,21.13
2017-10-16T13:06:22.485Z,21.19
2017-10-16T13:07:31.341Z,21.17
2017-10-16T13:08:40.183Z,21.17
2017-10-16T13:09:49.025Z,21.16
2017-10-16T13:10:57.866Z,21.22
2017-10-16T13:12:06.714Z,21.27
2017-10-16T13:13:15.644Z,21.31
2017-10-16T13:14:24.567Z,21.29
2017-10-16T13:15:34.113Z,21.24
2017-10-16T13:16:42.959Z,21.25
2017-10-16T13:17:51.845Z,21.22
2017-10-16T13:19:00.681Z,21.27
2017-10-16T13:20:09.521Z,21.27
2017-10-16T13:21:18.371Z,21.29
2017-10-16T13:22:27.206Z,21.24
2017-10-16T13:23:36.054Z,21.24
2017-10-16T13:24:44.891Z,21.27
2017-10-16T13:25:53.736Z,21.28
2017-10-16T13:27:02.573Z,21.25
2017-10-16T13:28:11.414Z,21.31
2017-10-16T13:29:20.253Z,21.31
2017-10-16T13:30:29.091Z,21.24
2017-10-16T13:31:37.929Z,21.22
2017-10-16T13:32:46.775Z,21.22
2017-10-16T13:33:55.619Z,21.27
2017-10-16T13:35:04.456Z,21.24
2017-10-16T13:36:13.301Z,21.24
2017-10-16T13:37:22.151Z,21.19
2017-10-16T13:38:30.984Z,21.27
2017-10-16T13:39:39.828Z,21.24
2017-10-16T13:40:48.668Z,21.25
2017-10-16T13:41:57.513Z,21.24
2017-10-16T13:43:06.356Z,21.21
2017-10-16T13:44:15.206Z,21.31
2017-10-16T13:45:24.040Z,21.27
2017-10-16T13:46:32.878Z,21.25
2017-10-16T13:47:41.717Z,21.24
2017-10-16T13:48:50.557Z,21.29
2017-10-16T13:49:59.398Z,21.22
2017-10-16T13:51:08.240Z,21.28
2017-10-16T13:52:17.077Z,21.22
2017-10-16T13:53:25.920Z,21.24
2017-10-16T13:54:34.771Z,21.14
2017-10-16T13:55:43.613Z,21.13
2017-10-16T13:56:52.446Z,21.19
2017-10-16T13:58:01.286Z,21.13
2017-10-16T13:59:10.132Z,21.22
2017-10-16T14:00:18.971Z,21.14
2017-10-16T14:01:27.812Z,21.17
2017-10-16T14:02:36.653Z,21.14
2017-10-16T14:03:45.493Z,21.16
2017-10-16T14:04:54.330Z,21.19
2017-10-16T14:06:03.173Z,21.16
2017-10-16T14:07:12.016Z,21.22
2017-10-16T14:08:20.862Z,21.22
2017-10-16T14:09:29.701Z,21.19
2017-10-16T14:10:38.537Z,21.14
2017-10-16T14:11:47.382Z,21.16
2017-10-16T14:12:56.224Z,21.14
2017-10-16T14:14:05.068Z,21.13
2017-10-16T14:15:13.910Z,21.19
2017-10-16T14:16:22.747Z,21.1
2017-10-16T14:17:31.584Z,21.07
2017-10-16T14:18:40.425Z,21.12
2017-10-16T14:19:49.262Z,21.14
2017-10-16T14:20:58.105Z,21.12
2017-10-16T14:22:06.943Z,21.1
2017-10-16T14:23:15.783Z,21.06
2017-10-16T14:24:24.625Z,21.04
2017-10-16T14:25:33.463Z,21.13
2017-10-16T14:26:42.634Z,21.1
2017-10-16T14:27:51.482Z,21.04
2017-10-16T14:29:00.322Z,21.13
2017-10-16T14:30:09.164Z,20.99
2017-10-16T14:31:18.004Z,21.1
2017-10-16T14:32:26.842Z,20.97
2017-10-16T14:33:35.691Z,21.07
2017-10-16T14:34:44.533Z,20.98
2017-10-16T14:35:53.377Z,20.99
2017-10-16T14:37:02.216Z,20.95
2017-10-16T14:38:11.059Z,21.03
2017-10-16T14:39:19.899Z,20.98
2017-10-16T14:40:28.739Z,20.97
2017-10-16T14:41:37.583Z,20.97
2017-10-16T14:42:46.422Z,20.98
2017-10-16T14:43:55.262Z,20.97
2017-10-16T14:45:04.436Z,20.92
2017-10-16T14:46:13.287Z,20.88
2017-10-16T14:47:22.122Z,20.92
2017-10-16T14:48:30.961Z,20.92
2017-10-16T14:49:39.800Z,20.94